Time;durP1;ratioP1;P1;durP2;ratioP2;P2;SDS_P1;SDS_P2;PMS_P1;PMS_P2;Temp;Humidity;BMP_temperature;BMP_pressure;BME280_temperature;BME280_humidity;BME280_pressure;Samples;Min_cycle;Max_cycle;Signal;HPM_P1;HPM_P2
2023/04/16 00:02:05;;;;;;;0.57;0.40;;;;;;;2.17;90.44;97434.28;6243971;28;20235;-54
2023/04/16 00:05:07;;;;;;;1.03;0.47;;;;;;;2.17;90.72;97439.53;6243644;28;20326;-53
2023/04/16 00:08:09;;;;;;;1.67;0.80;;;;;;;2.14;90.57;97439.09;6242666;28;20606;-42
2023/04/16 00:11:11;;;;;;;0.70;0.50;;;;;;;1.98;90.48;97414.75;6245904;28;20602;-53
2023/04/16 00:14:13;;;;;;;0.60;0.60;;;;;;;2.06;90.63;97430.34;6243844;28;20629;-54
2023/04/16 00:17:16;;;;;;;3.57;0.77;;;;;;;1.86;90.69;97399.72;6243491;28;20227;-52
2023/04/16 00:20:19;;;;;;;1.33;0.50;;;;;;;1.99;90.51;97432.13;6245599;28;20324;-52
2023/04/16 00:23:21;;;;;;;0.47;0.47;;;;;;;1.96;91.03;97439.59;6244106;28;20291;-53
2023/04/16 00:26:23;;;;;;;0.60;0.60;;;;;;;1.93;90.79;97437.34;6242157;28;20237;-53
2023/04/16 00:29:27;;;;;;;0.60;0.60;;;;;;;1.86;90.62;97426.78;6244481;28;20276;-54
2023/04/16 00:32:29;;;;;;;0.40;0.40;;;;;;;1.61;90.77;97400.16;6244177;28;20233;-53
2023/04/16 00:35:31;;;;;;;2.70;1.53;;;;;;;1.74;90.57;97429.16;6239305;28;20233;-54
2023/04/16 00:38:34;;;;;;;0.90;0.73;;;;;;;1.72;90.76;97436.41;6241347;28;20304;-54
2023/04/16 00:41:37;;;;;;;1.80;1.40;;;;;;;1.58;90.76;97424.19;6241372;28;20270;-54
2023/04/16 00:44:39;;;;;;;0.73;0.73;;;;;;;1.61;90.60;97436.13;6242738;28;20782;-54
2023/04/16 00:47:41;;;;;;;0.70;0.70;;;;;;;1.55;90.79;97448.19;6242217;28;20303;-54
2023/04/16 00:50:43;;;;;;;0.60;0.60;;;;;;;1.32;90.51;97421.34;6242627;28;20228;-54
2023/04/16 00:53:46;;;;;;;2.00;1.20;;;;;;;1.34;90.42;97453.47;6240334;28;20225;-54
2023/04/16 00:56:49;;;;;;;1.13;1.03;;;;;;;1.20;90.69;97442.84;6241816;28;20695;-51
2023/04/16 00:59:53;;;;;;;0.90;0.80;;;;;;;1.15;90.67;97452.28;6241435;28;20236;-54
2023/04/16 01:02:55;;;;;;;1.80;1.47;;;;;;;1.11;90.69;97445.78;6220898;28;20880;-51
2023/04/16 01:05:58;;;;;;;3.07;2.77;;;;;;;1.10;90.67;97452.03;6243014;28;20300;-54
2023/04/16 01:09:00;;;;;;;1.40;1.30;;;;;;;1.09;90.89;97458.28;6243556;28;20242;-51
2023/04/16 01:12:02;;;;;;;4.37;1.10;;;;;;;1.11;90.85;97459.72;6241860;28;20370;-54
2023/04/16 01:15:05;;;;;;;1.00;0.90;;;;;;;0.98;91.29;97436.78;6240435;28;20212;-53
2023/04/16 01:18:17;;;;;;;2.10;0.90;;;;;;;1.01;90.96;97461.84;6239246;28;20323;-51
2023/04/16 01:21:19;;;;;;;2.13;1.10;;;;;;;0.93;90.94;97468.00;6240600;28;20209;-54
2023/04/16 01:24:21;;;;;;;3.40;1.20;;;;;;;0.72;90.92;97447.81;6242028;28;20257;-54
2023/04/16 01:27:23;;;;;;;0.73;0.73;;;;;;;0.77;90.81;97465.63;6241792;28;20602;-53
2023/04/16 01:30:25;;;;;;;1.10;1.00;;;;;;;0.50;90.90;97425.19;6238776;28;20297;-53
2023/04/16 01:33:38;;;;;;;1.00;0.90;;;;;;;0.69;91.03;97471.81;6241083;28;20265;-53
2023/04/16 01:36:41;;;;;;;0.80;0.80;;;;;;;0.68;91.02;97471.97;6240165;28;20235;-54
2023/04/16 01:39:43;;;;;;;1.57;1.47;;;;;;;0.66;91.09;97481.84;6238799;28;20708;-54
2023/04/16 01:42:45;;;;;;;4.93;1.40;;;;;;;0.61;91.04;97486.81;6241456;28;20230;-53
2023/04/16 01:45:47;;;;;;;1.97;1.60;;;;;;;0.58;90.92;97487.16;6236914;28;20678;-53
2023/04/16 01:48:49;;;;;;;2.13;1.43;;;;;;;0.54;91.06;97483.28;6239961;28;20228;-53
2023/04/16 01:51:53;;;;;;;3.00;1.47;;;;;;;0.49;91.01;97481.22;6241059;28;20326;-54
2023/04/16 01:54:55;;;;;;;1.40;1.30;;;;;;;0.39;90.99;97486.72;6237523;28;20250;-52
2023/04/16 01:57:57;;;;;;;1.50;1.30;;;;;;;0.31;91.18;97465.88;6241260;28;20263;-54
2023/04/16 02:01:04;;;;;;;2.57;2.00;;;;;;;0.38;91.26;97473.81;6240835;28;20239;-51
2023/04/16 02:04:07;;;;;;;4.07;2.13;;;;;;;0.32;91.09;97477.16;6239509;28;20236;-51
2023/04/16 02:07:10;;;;;;;2.77;2.13;;;;;;;0.28;90.90;97486.38;6239477;28;20231;-50
2023/04/16 02:10:12;;;;;;;2.47;2.27;;;;;;;0.27;91.24;97482.16;6240993;28;20698;-51
2023/04/16 02:13:15;;;;;;;2.40;2.20;;;;;;;0.31;91.26;97478.97;6235873;28;20582;-54
2023/04/16 02:16:19;;;;;;;2.93;2.10;;;;;;;0.31;91.47;97484.22;6223958;28;20234;-53
2023/04/16 02:19:28;;;;;;;2.53;2.20;;;;;;;0.39;91.49;97484.09;6239784;28;20246;-53
2023/04/16 02:22:30;;;;;;;3.03;2.20;;;;;;;0.33;91.32;97479.59;6240579;28;20578;-52
2023/04/16 02:25:37;;;;;;;2.67;2.10;;;;;;;0.18;91.62;97453.41;6244092;28;20267;-54
2023/04/16 02:28:40;;;;;;;2.27;2.03;;;;;;;0.45;91.48;97486.03;6245226;28;20235;-53
2023/04/16 02:31:45;;;;;;;2.87;2.00;;;;;;;0.36;91.59;97476.63;6246342;28;20236;-54
2023/04/16 02:34:48;;;;;;;2.40;2.20;;;;;;;0.48;91.45;97482.22;6241507;28;20710;-54
2023/04/16 02:37:50;;;;;;;3.00;2.43;;;;;;;0.52;91.71;97489.53;6242650;28;21807;-54
2023/04/16 02:40:52;;;;;;;2.10;1.90;;;;;;;0.47;91.56;97484.03;6243766;28;20994;-53
2023/04/16 02:43:55;;;;;;;2.33;2.13;;;;;;;0.50;91.55;97486.28;6245061;28;20267;-52
2023/04/16 02:46:57;;;;;;;2.73;2.17;;;;;;;0.55;91.72;97487.56;6242673;28;20316;-52
2023/04/16 02:49:59;;;;;;;3.93;2.47;;;;;;;0.61;91.64;97486.81;6232192;28;20223;-51
2023/04/16 02:53:01;;;;;;;3.20;2.90;;;;;;;0.69;91.96;97495.38;6244784;28;20600;-53
2023/04/16 02:56:03;;;;;;;4.27;2.83;;;;;;;0.76;91.77;97498.88;6242855;28;20776;-54
2023/04/16 02:59:05;;;;;;;6.10;2.90;;;;;;;0.85;91.70;97493.56;6245190;28;20274;-54
2023/04/16 03:02:07;;;;;;;7.37;4.00;;;;;;;0.91;92.03;97500.66;6226597;28;20330;-51
2023/04/16 03:05:11;;;;;;;4.47;2.90;;;;;;;0.98;91.96;97507.59;6246070;28;20232;-52
2023/04/16 03:08:13;;;;;;;6.00;4.50;;;;;;;1.00;91.98;97497.75;6242582;28;20255;-53
2023/04/16 03:11:15;;;;;;;3.40;3.00;;;;;;;1.06;92.12;97496.19;6240907;28;20653;-54
2023/04/16 03:14:17;;;;;;;4.17;3.03;;;;;;;1.07;92.35;97505.69;6245741;28;20220;-54
2023/04/16 03:17:19;;;;;;;4.83;3.17;;;;;;;1.17;92.00;97515.88;6245534;28;20852;-54
2023/04/16 03:20:22;;;;;;;3.93;2.90;;;;;;;1.24;92.14;97512.31;6244942;28;20321;-54
2023/04/16 03:23:27;;;;;;;4.23;3.47;;;;;;;1.19;92.21;97495.53;6243347;28;20652;-54
2023/04/16 03:26:29;;;;;;;5.17;3.40;;;;;;;1.34;92.27;97514.66;6245445;28;20361;-54
2023/04/16 03:29:31;;;;;;;3.40;2.83;;;;;;;1.34;92.09;97525.16;6243928;28;20261;-54
2023/04/16 03:32:33;;;;;;;3.70;2.90;;;;;;;1.20;92.13;97505.00;6226816;28;20283;-54
2023/04/16 03:35:37;;;;;;;3.97;2.90;;;;;;;1.46;92.28;97523.63;6243358;28;20232;-55
2023/04/16 03:38:39;;;;;;;5.97;3.20;;;;;;;1.49;92.48;97522.47;6241355;28;20718;-54
2023/04/16 03:41:41;;;;;;;4.00;3.47;;;;;;;1.56;92.51;97515.44;6245238;28;20741;-54
2023/04/16 03:44:44;;;;;;;3.73;3.10;;;;;;;1.48;92.33;97500.66;6223009;28;20239;-53
2023/04/16 03:47:51;;;;;;;6.50;4.00;;;;;;;1.60;92.56;97510.63;6239609;28;20231;-54
2023/04/16 03:50:57;;;;;;;4.13;3.50;;;;;;;1.75;92.55;97530.56;6243371;28;20599;-54
2023/04/16 03:53:59;;;;;;;7.20;4.47;;;;;;;1.78;92.47;97534.63;6242836;28;20314;-54
2023/04/16 03:57:02;;;;;;;5.50;3.30;;;;;;;1.71;92.45;97513.56;6240938;28;20224;-54
2023/04/16 04:00:05;;;;;;;5.97;3.77;;;;;;;1.84;92.60;97533.88;6244089;28;20789;-54
2023/04/16 04:03:29;;;;;;;6.23;4.53;;;;;;;1.83;92.61;97531.44;6241196;28;20238;-54
2023/04/16 04:06:32;;;;;;;5.30;4.03;;;;;;;1.92;92.57;97544.25;6245830;28;20235;-53
2023/04/16 04:09:34;;;;;;;6.77;4.40;;;;;;;1.85;92.64;97537.31;6241970;28;20235;-55
2023/04/16 04:12:37;;;;;;;5.03;3.87;;;;;;;1.96;92.59;97560.41;6239319;28;20714;-54
2023/04/16 04:15:39;;;;;;;5.00;3.83;;;;;;;1.99;92.63;97560.06;6242287;28;20229;-54
2023/04/16 04:18:41;;;;;;;4.47;3.63;;;;;;;1.99;92.50;97563.50;6239847;28;20665;-53
2023/04/16 04:21:45;;;;;;;6.97;4.57;;;;;;;2.03;92.73;97563.94;6242162;28;20238;-54
2023/04/16 04:24:47;;;;;;;5.33;3.50;;;;;;;2.05;92.71;97567.16;6242658;28;20334;-54
2023/04/16 04:27:49;;;;;;;4.37;3.33;;;;;;;2.04;92.56;97568.97;6243420;28;20329;-54
2023/04/16 04:30:51;;;;;;;3.63;3.10;;;;;;;2.07;92.82;97570.44;6242584;28;20237;-55
2023/04/16 04:33:53;;;;;;;4.30;3.20;;;;;;;2.06;92.72;97574.84;6240301;28;20252;-55
2023/04/16 04:36:55;;;;;;;5.93;3.47;;;;;;;2.11;92.85;97576.91;6241859;28;20245;-54
2023/04/16 04:39:58;;;;;;;3.97;3.47;;;;;;;2.09;92.73;97570.22;6239844;28;20645;-55
2023/04/16 04:43:01;;;;;;;4.47;3.60;;;;;;;1.92;92.78;97546.03;6238314;28;20264;-55
2023/04/16 04:46:03;;;;;;;4.77;3.63;;;;;;;2.21;92.65;97593.16;6224211;28;20720;-54
2023/04/16 04:49:06;;;;;;;4.40;3.30;;;;;;;2.24;92.92;97603.31;6242398;28;20239;-54
2023/04/16 04:52:08;;;;;;;4.33;3.50;;;;;;;2.30;92.85;97605.16;6241779;28;20240;-54
2023/04/16 04:55:11;;;;;;;5.03;4.10;;;;;;;2.38;93.00;97603.41;6220940;28;20245;-53
2023/04/16 04:58:14;;;;;;;5.73;3.60;;;;;;;2.14;92.88;97560.78;6224254;28;20325;-54
2023/04/16 05:01:17;;;;;;;5.57;3.70;;;;;;;2.55;92.99;97621.31;6240044;28;20768;-53
2023/04/16 05:04:19;;;;;;;4.43;3.87;;;;;;;2.61;92.95;97622.38;6242163;28;20705;-54
2023/04/16 05:07:21;;;;;;;4.17;3.47;;;;;;;2.70;93.08;97630.91;6242377;28;20792;-53
2023/04/16 05:10:23;;;;;;;5.57;4.00;;;;;;;2.79;92.96;97625.31;6240701;28;20695;-54
2023/04/16 05:13:25;;;;;;;5.23;4.43;;;;;;;2.88;93.16;97640.94;6242654;28;20741;-54
2023/04/16 05:16:27;;;;;;;4.30;3.77;;;;;;;2.96;93.17;97632.91;6242718;28;20690;-55
2023/04/16 05:19:30;;;;;;;6.50;4.00;;;;;;;3.02;93.21;97640.00;6242036;28;20609;-54
2023/04/16 05:22:32;;;;;;;5.83;4.50;;;;;;;3.04;93.19;97636.16;6237600;28;20229;-56
2023/04/16 05:25:35;;;;;;;5.07;4.10;;;;;;;3.18;92.95;97646.78;6241377;28;20239;-56
2023/04/16 05:28:37;;;;;;;5.97;4.60;;;;;;;3.24;93.16;97645.97;6240311;28;20234;-56
2023/04/16 05:31:40;;;;;;;5.47;4.07;;;;;;;3.33;93.28;97648.25;6240527;28;20255;-56
2023/04/16 05:34:42;;;;;;;4.50;3.63;;;;;;;3.23;93.36;97615.41;6241921;28;20235;-56
2023/04/16 05:37:44;;;;;;;6.40;4.33;;;;;;;3.48;93.16;97640.19;6242533;28;20315;-56
2023/04/16 05:40:46;;;;;;;5.97;4.20;;;;;;;3.58;93.30;97643.28;6239966;28;20444;-56
2023/04/16 05:43:48;;;;;;;29.83;15.97;;;;;;;3.66;93.41;97644.13;6238505;28;20390;-56
2023/04/16 05:46:50;;;;;;;14.67;7.87;;;;;;;3.61;93.48;97626.28;6239630;28;20254;-58
2023/04/16 05:49:52;;;;;;;12.33;7.17;;;;;;;3.84;93.38;97646.97;6241512;28;20314;-56
2023/04/16 05:52:54;;;;;;;9.27;5.63;;;;;;;3.93;93.36;97644.97;6241654;28;20677;-56
2023/04/16 05:55:56;;;;;;;5.60;4.67;;;;;;;4.00;93.45;97638.72;6241883;28;20310;-56
2023/04/16 05:58:58;;;;;;;6.87;4.87;;;;;;;4.13;93.40;97649.25;6242194;28;20599;-56
2023/04/16 06:02:00;;;;;;;6.77;5.20;;;;;;;4.25;93.33;97638.94;6241385;28;20715;-56
2023/04/16 06:05:03;;;;;;;9.17;6.47;;;;;;;4.36;93.51;97640.97;6242097;28;20234;-59
2023/04/16 06:08:05;;;;;;;8.67;7.00;;;;;;;4.48;93.58;97648.25;6241322;28;20300;-59
2023/04/16 06:11:08;;;;;;;6.70;5.10;;;;;;;4.58;93.57;97644.22;6241833;28;20256;-57
2023/04/16 06:14:10;;;;;;;6.73;5.30;;;;;;;4.68;93.48;97651.72;6242364;28;20649;-57
2023/04/16 06:17:12;;;;;;;10.47;7.70;;;;;;;4.55;93.23;97610.31;6240930;28;20731;-58
2023/04/16 06:20:14;;;;;;;10.20;7.80;;;;;;;4.91;92.62;97648.63;6237148;28;20260;-58
2023/04/16 06:23:16;;;;;;;8.63;7.10;;;;;;;4.95;90.47;97617.34;6241851;28;20316;-58
2023/04/16 06:26:18;;;;;;;7.30;6.53;;;;;;;5.41;87.05;97654.16;6241262;28;20490;-58
2023/04/16 06:29:20;;;;;;;8.63;5.77;;;;;;;5.49;85.56;97661.88;6242591;28;20229;-58
2023/04/16 06:32:34;;;;;;;5.67;4.80;;;;;;;5.80;83.11;97661.09;6242792;28;20724;-57
2023/04/16 06:35:36;;;;;;;5.40;4.80;;;;;;;5.53;82.97;97627.91;6244310;28;20239;-57
2023/04/16 06:38:38;;;;;;;4.87;4.43;;;;;;;5.83;83.75;97668.63;6245182;28;20760;-58
2023/04/16 06:41:40;;;;;;;6.20;5.13;;;;;;;5.82;82.83;97672.28;6239811;28;20624;-58
2023/04/16 06:44:42;;;;;;;5.53;4.60;;;;;;;5.84;82.78;97672.06;6235744;28;20239;-58
2023/04/16 06:47:44;;;;;;;5.33;4.83;;;;;;;5.90;82.75;97679.94;6235052;28;20235;-58
2023/04/16 06:50:46;;;;;;;5.93;5.27;;;;;;;5.82;82.42;97643.22;6246016;28;20605;-58
2023/04/16 06:53:48;;;;;;;6.33;5.70;;;;;;;6.12;81.40;97674.38;6246346;28;20384;-54
2023/04/16 06:56:50;;;;;;;6.40;5.17;;;;;;;6.19;82.63;97680.44;6240428;28;20244;-56
2023/04/16 06:59:52;;;;;;;6.17;5.57;;;;;;;6.47;79.57;97686.13;6240268;28;20244;-58
2023/04/16 07:02:54;;;;;;;6.33;5.73;;;;;;;6.45;79.27;97680.25;6239998;28;20233;-44
2023/04/16 07:05:59;;;;;;;6.03;5.20;;;;;;;6.43;78.86;97689.44;6240013;28;20265;-46
2023/04/16 07:09:01;;;;;;;6.70;6.00;;;;;;;6.41;79.45;97700.22;6238072;28;20315;-45
2023/04/16 07:12:03;;;;;;;6.03;5.33;;;;;;;6.35;79.51;97693.13;6244347;28;20229;-45
2023/04/16 07:15:06;;;;;;;5.90;5.30;;;;;;;6.36;79.56;97707.19;6244823;28;20241;-45
2023/04/16 07:18:08;;;;;;;5.77;5.07;;;;;;;6.28;80.08;97702.16;6245526;28;20693;-46
2023/04/16 07:21:10;;;;;;;5.77;5.20;;;;;;;6.29;79.33;97699.28;6242915;28;20216;-46
2023/04/16 07:24:12;;;;;;;8.37;5.40;;;;;;;6.47;78.87;97720.53;6244054;28;20695;-49
2023/04/16 07:27:15;;;;;;;4.83;4.37;;;;;;;6.50;78.15;97723.78;6240903;28;20239;-47
2023/04/16 07:30:17;;;;;;;5.03;4.53;;;;;;;6.52;77.75;97727.84;6240836;28;20329;-47
2023/04/16 07:33:19;;;;;;;5.77;5.03;;;;;;;6.37;78.31;97699.03;6243817;28;20309;-44
2023/04/16 07:36:22;;;;;;;5.87;5.00;;;;;;;6.64;77.70;97722.66;6241316;28;20367;-45
2023/04/16 07:39:24;;;;;;;5.00;4.50;;;;;;;6.79;76.65;97728.44;6242630;28;20580;-44
2023/04/16 07:42:27;;;;;;;5.27;4.70;;;;;;;6.79;77.58;97731.09;6243759;28;20240;-45
2023/04/16 07:45:29;;;;;;;5.07;4.60;;;;;;;6.79;76.60;97732.91;6245147;28;20257;-46
2023/04/16 07:48:31;;;;;;;5.07;4.53;;;;;;;6.76;76.48;97734.19;6242940;28;20370;-43
2023/04/16 07:51:33;;;;;;;4.77;4.33;;;;;;;6.73;76.63;97731.94;6246740;28;20254;-46
2023/04/16 07:54:35;;;;;;;4.97;4.37;;;;;;;6.82;76.91;97743.09;6240239;28;20249;-46
2023/04/16 07:57:37;;;;;;;5.03;4.47;;;;;;;6.86;76.94;97747.75;6243724;28;20313;-45
2023/04/16 08:00:39;;;;;;;5.20;4.17;;;;;;;6.84;77.12;97748.97;6243320;28;20243;-43
2023/04/16 08:03:41;;;;;;;4.77;4.33;;;;;;;6.65;76.70;97701.28;6240842;28;20304;-47
2023/04/16 08:06:44;;;;;;;5.27;4.77;;;;;;;7.01;77.46;97747.41;6244348;28;20240;-47
2023/04/16 08:09:48;;;;;;;4.80;4.30;;;;;;;7.19;77.37;97743.97;6238829;28;20319;-46
2023/04/16 08:12:54;;;;;;;4.53;4.13;;;;;;;7.38;74.13;97739.50;6241806;28;20557;-45
2023/04/16 08:15:58;;;;;;;4.57;4.17;;;;;;;7.52;73.89;97746.31;6243140;28;20467;-49
2023/04/16 08:19:00;;;;;;;4.47;4.07;;;;;;;7.54;73.25;97748.72;6241564;28;20593;-45
2023/04/16 08:22:02;;;;;;;4.47;4.07;;;;;;;7.36;73.36;97729.16;6244055;28;20281;-43
2023/04/16 08:25:05;;;;;;;4.47;3.83;;;;;;;7.52;73.85;97748.94;6243929;28;20325;-49
2023/04/16 08:28:07;;;;;;;3.83;3.53;;;;;;;7.40;72.31;97722.38;6240774;28;20296;-48
2023/04/16 08:31:09;;;;;;;4.33;3.93;;;;;;;7.39;72.29;97754.38;6243409;28;20899;-44
2023/04/16 08:34:12;;;;;;;3.90;3.60;;;;;;;7.38;73.76;97758.88;6239455;28;20239;-45
2023/04/16 08:37:14;;;;;;;3.50;3.20;;;;;;;7.45;73.43;97762.28;6242661;28;20598;-45
2023/04/16 08:40:16;;;;;;;4.67;3.47;;;;;;;7.47;71.79;97756.75;6240810;28;20237;-46
2023/04/16 08:43:23;;;;;;;4.27;3.87;;;;;;;7.65;71.17;97755.97;6242992;28;20464;-58
2023/04/16 08:46:25;;;;;;;3.70;3.40;;;;;;;7.59;70.96;97755.00;6244281;28;20712;-58
2023/04/16 08:49:28;;;;;;;3.50;3.20;;;;;;;7.61;71.29;97713.16;6244160;28;20833;-59
2023/04/16 08:52:31;;;;;;;3.60;3.30;;;;;;;8.14;68.67;97751.50;6243224;28;20235;-59
2023/04/16 08:55:38;;;;;;;3.40;3.10;;;;;;;8.25;69.34;97764.00;6242891;28;20262;-58
2023/04/16 08:58:41;;;;;;;3.47;3.17;;;;;;;8.23;69.86;97766.09;6239016;28;20242;-58
2023/04/16 09:01:45;;;;;;;3.13;2.87;;;;;;;8.25;68.33;97766.66;6242038;28;20235;-59
2023/04/16 09:04:49;;;;;;;3.00;2.80;;;;;;;8.10;69.35;97734.41;6242871;28;20380;-59
2023/04/16 09:07:53;;;;;;;3.10;2.80;;;;;;;8.34;69.33;97772.47;6247897;28;20270;-58
2023/04/16 09:10:56;;;;;;;3.20;2.90;;;;;;;8.25;69.05;97772.78;6238445;28;20246;-57
2023/04/16 09:13:59;;;;;;;3.67;2.70;;;;;;;8.25;68.29;97770.13;6239188;28;20594;-58
2023/04/16 09:17:03;;;;;;;3.23;2.93;;;;;;;8.14;68.06;97768.22;6240773;28;20234;-56
2023/04/16 09:20:10;;;;;;;2.67;2.47;;;;;;;8.21;67.55;97786.72;6238905;28;20234;-58
2023/04/16 09:23:12;;;;;;;2.73;2.53;;;;;;;8.27;68.76;97785.81;6235785;28;20594;-58
2023/04/16 09:26:15;;;;;;;3.03;2.73;;;;;;;8.19;69.17;97786.94;6235624;28;20740;-58
2023/04/16 09:29:36;;;;;;;3.40;3.10;;;;;;;8.26;68.26;97784.19;6240005;28;20259;-58
2023/04/16 09:32:38;;;;;;;3.13;2.83;;;;;;;8.17;68.54;97793.50;6240107;28;20779;-58
2023/04/16 09:35:52;;;;;;;3.03;2.73;;;;;;;8.30;67.13;97793.34;6240912;28;20745;-57
2023/04/16 09:38:55;;;;;;;3.07;2.60;;;;;;;8.39;68.12;97797.34;6223007;28;20238;-58
2023/04/16 09:41:58;;;;;;;2.63;2.43;;;;;;;8.44;66.47;97792.16;6238853;28;20277;-58
2023/04/16 09:45:00;;;;;;;2.60;2.40;;;;;;;8.72;65.51;97798.72;6237704;28;20224;-57
2023/04/16 09:48:06;;;;;;;2.67;2.47;;;;;;;8.74;64.95;97800.09;6236637;28;20602;-54
2023/04/16 09:51:08;;;;;;;2.20;2.00;;;;;;;8.67;66.16;97766.69;6241033;28;20697;-57
2023/04/16 09:54:10;;;;;;;2.20;2.00;;;;;;;8.94;65.06;97783.06;6237494;28;20557;-57
2023/04/16 09:57:13;;;;;;;2.13;1.93;;;;;;;9.19;62.08;97807.59;6234447;28;20236;-58
2023/04/16 10:00:17;;;;;;;2.10;1.80;;;;;;;9.18;63.57;97807.81;6242941;28;20215;-57
2023/04/16 10:03:31;;;;;;;2.50;2.30;;;;;;;9.12;61.49;97806.09;6241290;28;20651;-56
2023/04/16 10:06:34;;;;;;;2.33;2.10;;;;;;;9.04;61.42;97809.88;6241013;28;20242;-57
2023/04/16 10:09:41;;;;;;;2.17;1.97;;;;;;;9.02;63.32;97804.78;6229066;28;20231;-57
2023/04/16 10:12:51;;;;;;;2.53;2.30;;;;;;;9.07;63.27;97816.59;6239264;28;20342;-57
2023/04/16 10:15:56;;;;;;;2.20;2.00;;;;;;;9.23;62.46;97806.09;6232742;28;20318;-57
2023/04/16 10:18:59;;;;;;;3.40;2.30;;;;;;;9.33;60.75;97802.84;6232684;28;20323;-57
2023/04/16 10:22:01;;;;;;;2.40;2.20;;;;;;;9.11;62.11;97797.28;6237669;28;20322;-57
2023/04/16 10:25:06;;;;;;;2.40;2.20;;;;;;;9.00;62.35;97795.41;6234117;28;20737;-57
2023/04/16 10:28:12;;;;;;;2.13;1.97;;;;;;;9.09;63.38;97795.91;6233738;28;20228;-57
2023/04/16 10:31:16;;;;;;;2.50;2.30;;;;;;;9.25;64.62;97808.50;6234517;28;20235;-57
2023/04/16 10:34:20;;;;;;;2.57;2.37;;;;;;;9.07;64.33;97798.00;6239458;28;20376;-57
2023/04/16 10:37:32;;;;;;;2.57;2.37;;;;;;;8.74;65.92;97807.25;6236143;28;20385;-57
2023/04/16 10:40:36;;;;;;;3.20;2.90;;;;;;;8.66;65.80;97803.06;6233200;28;20239;-57
2023/04/16 10:43:49;;;;;;;2.60;2.40;;;;;;;8.56;66.01;97817.94;6240108;28;20243;-58
2023/04/16 10:46:53;;;;;;;2.70;2.50;;;;;;;8.41;67.23;97818.34;6243494;28;20711;-56
2023/04/16 10:49:57;;;;;;;2.57;2.37;;;;;;;8.49;67.04;97810.88;6244596;28;20311;-58
2023/04/16 10:53:18;;;;;;;3.03;2.73;;;;;;;8.46;66.69;97816.63;6231083;28;20238;-58
2023/04/16 10:56:25;;;;;;;2.50;2.30;;;;;;;8.55;67.08;97821.63;6235694;28;20227;-57
2023/04/16 10:59:33;;;;;;;3.57;3.23;;;;;;;8.55;66.25;97817.13;6236424;28;20234;-61
2023/04/16 11:02:39;;;;;;;3.57;2.87;;;;;;;8.52;65.25;97801.63;6242870;28;20792;-58
2023/04/16 11:05:46;;;;;;;3.00;2.70;;;;;;;8.70;65.47;97814.88;6240355;28;20591;-58
2023/04/16 11:08:50;;;;;;;2.80;2.60;;;;;;;8.80;65.03;97811.66;6235740;28;20231;-57
2023/04/16 11:11:56;;;;;;;2.50;2.30;;;;;;;9.05;64.58;97811.50;6242693;28;20224;-58
2023/04/16 11:15:08;;;;;;;2.63;2.43;;;;;;;9.21;62.76;97808.19;6248251;28;20223;-54
2023/04/16 11:18:10;;;;;;;2.50;2.30;;;;;;;9.14;62.26;97801.34;6240220;28;20281;-57
2023/04/16 11:21:12;;;;;;;2.73;2.43;;;;;;;9.14;62.79;97817.28;6241639;28;20284;-57
2023/04/16 11:24:15;;;;;;;2.57;2.37;;;;;;;9.14;62.49;97798.69;6239985;28;20200;-56
2023/04/16 11:27:17;;;;;;;2.50;2.30;;;;;;;9.12;61.49;97785.63;6243435;28;20715;-57
2023/04/16 11:30:35;;;;;;;2.30;2.10;;;;;;;9.27;62.68;97782.53;6224652;28;20214;-56
2023/04/16 11:33:38;;;;;;;2.60;2.40;;;;;;;9.54;62.41;97826.22;6244152;28;20858;-57
2023/04/16 11:36:47;;;;;;;2.33;1.87;;;;;;;9.72;60.92;97822.63;6243012;28;20232;-56
2023/04/16 11:39:52;;;;;;;2.40;2.20;;;;;;;9.79;59.78;97823.31;6240274;28;20270;-57
2023/04/16 11:42:54;;;;;;;2.67;2.43;;;;;;;9.70;61.53;97815.91;6237469;28;20234;-57
2023/04/16 11:46:01;;;;;;;2.50;2.30;;;;;;;9.76;59.29;97825.66;6241517;28;20232;-56
2023/04/16 11:49:16;;;;;;;2.50;2.30;;;;;;;9.73;59.05;97794.19;6239266;28;20240;-56
2023/04/16 11:52:30;;;;;;;3.03;2.20;;;;;;;10.20;59.77;97813.53;6242236;28;20227;-56
2023/04/16 11:55:43;;;;;;;2.37;2.17;;;;;;;10.40;58.03;97809.69;6228193;28;20802;-57
2023/04/16 11:59:10;;;;;;;2.27;2.07;;;;;;;10.88;55.44;97819.06;6230800;28;20700;-57
2023/04/16 12:02:13;;;;;;;2.50;2.13;;;;;;;10.62;56.35;97805.28;6234338;28;20240;-58
2023/04/16 12:05:30;;;;;;;2.90;2.33;;;;;;;10.53;56.98;97804.06;6227388;28;20222;-58
2023/04/16 12:08:32;;;;;;;2.70;2.50;;;;;;;10.66;56.24;97806.44;6239278;28;20239;-57
2023/04/16 12:11:39;;;;;;;2.00;1.90;;;;;;;10.53;56.37;97785.41;6239633;28;20241;-57
2023/04/16 12:14:49;;;;;;;3.17;2.10;;;;;;;10.32;57.51;97722.97;6244023;28;20856;-58
2023/04/16 12:18:06;;;;;;;1.90;1.80;;;;;;;10.88;56.84;97827.06;6243825;28;20241;-57
2023/04/16 12:21:08;;;;;;;2.20;2.00;;;;;;;10.71;55.32;97821.72;6239078;28;20235;-57
2023/04/16 12:24:12;;;;;;;2.07;1.90;;;;;;;10.48;55.90;97814.63;6243260;28;20210;-57
2023/04/16 12:27:15;;;;;;;2.40;2.20;;;;;;;10.13;57.94;97812.03;6242791;28;20252;-56
2023/04/16 12:30:19;;;;;;;3.63;2.57;;;;;;;9.98;60.18;97821.31;6241480;28;20229;-56
2023/04/16 12:33:22;;;;;;;2.90;2.60;;;;;;;9.49;60.78;97793.38;6238989;28;20570;-56
2023/04/16 12:36:24;;;;;;;2.73;2.53;;;;;;;9.48;61.91;97829.81;6242681;28;20293;-58
2023/04/16 12:39:26;;;;;;;2.73;2.53;;;;;;;9.55;61.54;97819.84;6241291;28;20309;-58
2023/04/16 12:42:34;;;;;;;2.80;2.60;;;;;;;9.49;63.04;97827.94;6242854;28;20374;-58
2023/04/16 12:45:37;;;;;;;2.67;2.47;;;;;;;9.26;64.19;97816.28;6231556;28;20309;-57
2023/04/16 12:48:40;;;;;;;2.50;2.30;;;;;;;9.35;64.94;97834.53;6242680;28;21016;-58
2023/04/16 12:51:42;;;;;;;3.17;2.50;;;;;;;9.09;66.49;97801.22;6239348;28;20229;-58
2023/04/16 12:54:44;;;;;;;5.77;3.30;;;;;;;9.19;66.29;97807.59;6242772;28;20231;-60
2023/04/16 12:57:51;;;;;;;3.43;2.80;;;;;;;9.24;66.43;97822.84;6241594;28;20239;-59
2023/04/16 13:00:54;;;;;;;3.17;2.87;;;;;;;9.17;66.00;97828.28;6238026;28;20722;-59
2023/04/16 13:03:56;;;;;;;3.00;2.70;;;;;;;9.14;66.82;97831.38;6241794;28;20338;-59
2023/04/16 13:06:59;;;;;;;3.40;2.53;;;;;;;9.14;66.90;97830.56;6239917;28;20235;-59
2023/04/16 13:10:01;;;;;;;3.00;2.70;;;;;;;9.16;68.22;97831.13;6236975;28;20232;-60
2023/04/16 13:13:04;;;;;;;3.30;3.00;;;;;;;9.17;67.26;97824.81;6237448;28;20679;-59
2023/04/16 13:16:07;;;;;;;3.00;2.80;;;;;;;9.16;67.00;97820.50;6242195;28;20240;-59
2023/04/16 13:19:09;;;;;;;2.90;2.40;;;;;;;9.16;67.84;97825.81;6242165;28;20585;-58
2023/04/16 13:22:12;;;;;;;2.87;2.53;;;;;;;9.21;69.01;97821.47;6241815;28;20238;-59
2023/04/16 13:25:14;;;;;;;3.00;2.50;;;;;;;9.20;68.98;97798.56;6242617;28;20247;-58
2023/04/16 13:28:16;;;;;;;2.93;2.63;;;;;;;9.19;68.38;97782.84;6238963;28;20233;-58
2023/04/16 13:31:20;;;;;;;2.50;2.30;;;;;;;9.43;66.94;97820.91;6241543;28;20232;-58
2023/04/16 13:34:23;;;;;;;2.67;2.47;;;;;;;9.39;67.63;97809.91;6243247;28;20245;-58
2023/04/16 13:37:25;;;;;;;2.50;2.30;;;;;;;9.47;67.14;97822.88;6234097;28;20322;-45
2023/04/16 13:40:27;;;;;;;2.73;2.53;;;;;;;9.55;64.41;97825.16;6239812;28;20270;-51
2023/04/16 13:43:31;;;;;;;2.53;2.30;;;;;;;9.61;65.13;97822.66;6240051;28;21691;-48
2023/04/16 13:46:33;;;;;;;2.10;1.90;;;;;;;9.69;65.39;97819.63;6241701;28;20272;-51
2023/04/16 13:49:35;;;;;;;1.90;1.80;;;;;;;9.75;64.05;97819.53;6241139;28;20238;-50
2023/04/16 13:52:38;;;;;;;2.37;2.17;;;;;;;9.91;61.75;97818.00;6241820;28;20363;-50
2023/04/16 13:55:41;;;;;;;2.13;1.93;;;;;;;9.79;63.85;97799.34;6237272;28;20353;-49
2023/04/16 13:58:43;;;;;;;2.27;2.07;;;;;;;10.05;63.20;97818.53;6240830;28;20233;-51
2023/04/16 14:01:46;;;;;;;2.00;1.90;;;;;;;10.19;61.19;97819.06;6240907;28;20233;-52
2023/04/16 14:04:48;;;;;;;1.93;1.73;;;;;;;10.27;59.76;97818.75;6235771;28;20237;-51
2023/04/16 14:07:50;;;;;;;1.90;1.80;;;;;;;10.33;60.00;97823.13;6241112;28;20235;-52
2023/04/16 14:10:53;;;;;;;1.93;1.80;;;;;;;10.28;61.74;97817.69;6238809;28;20244;-51
2023/04/16 14:13:57;;;;;;;2.20;1.80;;;;;;;10.35;60.70;97821.03;6241996;28;20681;-52
2023/04/16 14:17:02;;;;;;;1.83;1.70;;;;;;;10.38;61.30;97833.88;6242432;28;20231;-52
2023/04/16 14:20:05;;;;;;;2.20;2.00;;;;;;;10.46;60.12;97827.38;6243782;28;20241;-51
2023/04/16 14:23:08;;;;;;;2.20;2.00;;;;;;;10.40;58.09;97820.34;6244980;28;20234;-51
2023/04/16 14:26:10;;;;;;;1.83;1.70;;;;;;;10.21;59.74;97827.66;6245946;28;20705;-48
2023/04/16 14:29:13;;;;;;;2.40;2.20;;;;;;;10.07;60.77;97829.75;6245992;28;20314;-48
2023/04/16 14:32:15;;;;;;;2.03;1.93;;;;;;;9.96;59.26;97826.06;6246753;28;20735;-51
2023/04/16 14:35:17;;;;;;;2.23;1.90;;;;;;;9.94;60.34;97825.47;6246615;28;20317;-52